Time;durP1;ratioP1;P1;durP2;ratioP2;P2;SDS_P1;SDS_P2;PMS_P1;PMS_P2;Temp;Humidity;BMP_temperature;BMP_pressure;BME280_temperature;BME280_humidity;BME280_pressure;Samples;Min_cycle;Max_cycle;Signal;HPM_P1;HPM_P2
2022/10/28 00:01:01;;;;;;;8.10;3.87;;;;;;;;;;5072942;28;20199;-45
2022/10/28 00:03:27;;;;;;;7.57;3.23;;;;;;;;;;5072940;28;20204;-45
2022/10/28 00:05:53;;;;;;;5.07;3.13;;;;;;;;;;5072671;28;20286;-45
2022/10/28 00:08:19;;;;;;;5.73;3.27;;;;;;;;;;5072678;28;20222;-45
2022/10/28 00:10:47;;;;;;;8.23;3.20;;;;;;;;;;5072366;28;20196;-45
2022/10/28 00:13:13;;;;;;;8.13;3.07;;;;;;;;;;5072847;28;20291;-45
2022/10/28 00:15:39;;;;;;;6.77;3.20;;;;;;;;;;5072708;28;20285;-44
2022/10/28 00:18:05;;;;;;;12.40;3.57;;;;;;;;;;5072679;28;20196;-44
2022/10/28 00:20:31;;;;;;;6.13;2.90;;;;;;;;;;5072587;28;20196;-45
2022/10/28 00:22:57;;;;;;;4.47;3.13;;;;;;;;;;5072156;28;20672;-45
2022/10/28 00:25:23;;;;;;;4.07;3.30;;;;;;;;;;5072490;28;20206;-44
2022/10/28 00:27:51;;;;;;;6.87;3.50;;;;;;;;;;5072305;28;20206;-45
2022/10/28 00:30:17;;;;;;;7.13;3.20;;;;;;;;;;5072348;28;20835;-45
2022/10/28 00:32:43;;;;;;;7.63;3.20;;;;;;;;;;5072316;28;20709;-45
2022/10/28 00:35:09;;;;;;;12.20;3.90;;;;;;;;;;5072011;28;20231;-45
2022/10/28 00:37:35;;;;;;;5.47;3.07;;;;;;;;;;5072126;28;20203;-45
2022/10/28 00:40:01;;;;;;;6.23;3.00;;;;;;;;;;5072169;28;20286;-45
2022/10/28 00:42:27;;;;;;;5.03;3.23;;;;;;;;;;5072233;28;20227;-45
2022/10/28 00:44:55;;;;;;;5.73;3.00;;;;;;;;;;5071596;28;20206;-46
2022/10/28 00:47:27;;;;;;;9.53;3.37;;;;;;;;;;5070794;28;20204;-44
2022/10/28 00:49:55;;;;;;;7.83;3.33;;;;;;;;;;5071270;28;20226;-45
2022/10/28 00:52:23;;;;;;;6.80;3.43;;;;;;;;;;5071739;28;20243;-45
2022/10/28 00:54:51;;;;;;;6.03;3.20;;;;;;;;;;5071806;28;20219;-45
2022/10/28 00:57:19;;;;;;;8.17;3.40;;;;;;;;;;5071998;28;20187;-45
2022/10/28 00:59:46;;;;;;;7.03;3.40;;;;;;;;;;5071954;28;20210;-45
2022/10/28 01:02:14;;;;;;;6.07;3.53;;;;;;;;;;5071904;28;20187;-44
2022/10/28 01:04:40;;;;;;;9.03;3.50;;;;;;;;;;5070145;28;20650;-44
2022/10/28 01:07:06;;;;;;;8.57;3.57;;;;;;;;;;5071429;28;20199;-44
2022/10/28 01:09:32;;;;;;;6.10;3.23;;;;;;;;;;5070175;28;20253;-44
2022/10/28 01:12:03;;;;;;;6.47;3.50;;;;;;;;;;5069214;28;20200;-44
2022/10/28 01:14:34;;;;;;;5.40;3.07;;;;;;;;;;5071312;28;20229;-45
2022/10/28 01:17:18;;;;;;;5.23;3.00;;;;;;;;;;5071749;28;20201;-45
2022/10/28 01:19:52;;;;;;;5.57;3.37;;;;;;;;;;5071630;28;20213;-44
2022/10/28 01:22:20;;;;;;;4.40;3.60;;;;;;;;;;5071217;28;20239;-44
2022/10/28 01:24:54;;;;;;;7.40;3.50;;;;;;;;;;5071255;28;20203;-44
2022/10/28 01:27:44;;;;;;;9.07;3.83;;;;;;;;;;5071441;28;20614;-45
2022/10/28 01:30:13;;;;;;;5.97;3.77;;;;;;;;;;5015045;28;20201;-45
2022/10/28 01:32:45;;;;;;;5.40;3.33;;;;;;;;;;5071203;28;20199;-44
2022/10/28 01:35:13;;;;;;;4.27;3.50;;;;;;;;;;5071462;28;20635;-44
2022/10/28 01:37:42;;;;;;;7.90;3.27;;;;;;;;;;5071582;28;20209;-44
2022/10/28 01:40:11;;;;;;;6.83;3.47;;;;;;;;;;5071356;28;20612;-44
2022/10/28 01:42:40;;;;;;;7.43;3.60;;;;;;;;;;5071122;28;20200;-44
2022/10/28 01:45:09;;;;;;;5.63;3.83;;;;;;;;;;5071327;28;20195;-44
2022/10/28 01:47:37;;;;;;;6.43;3.50;;;;;;;;;;5071108;28;20240;-45
2022/10/28 01:50:05;;;;;;;6.33;4.00;;;;;;;;;;5071285;28;20208;-44
2022/10/28 01:52:32;;;;;;;5.57;3.40;;;;;;;;;;5071202;28;20195;-44
2022/10/28 01:55:00;;;;;;;7.90;4.20;;;;;;;;;;5070875;28;20234;-44
2022/10/28 01:57:27;;;;;;;7.50;4.00;;;;;;;;;;5071215;28;20203;-44
2022/10/28 01:59:54;;;;;;;6.17;4.10;;;;;;;;;;5071698;28;20646;-44
2022/10/28 02:02:20;;;;;;;8.13;4.57;;;;;;;;;;5074693;28;20207;-44
2022/10/28 02:04:46;;;;;;;7.13;4.20;;;;;;;;;;5075021;28;20191;-44
2022/10/28 02:07:14;;;;;;;6.10;3.83;;;;;;;;;;5075000;28;20199;-45
2022/10/28 02:09:50;;;;;;;4.63;3.97;;;;;;;;;;5074801;28;20199;-44
2022/10/28 02:12:19;;;;;;;7.47;4.40;;;;;;;;;;5074652;28;20195;-45
2022/10/28 02:14:57;;;;;;;6.80;3.87;;;;;;;;;;5074405;28;20640;-44
2022/10/28 02:17:28;;;;;;;5.53;3.90;;;;;;;;;;5075004;28;20195;-44
2022/10/28 02:20:00;;;;;;;6.80;4.00;;;;;;;;;;5074825;28;20192;-44
2022/10/28 02:22:30;;;;;;;6.87;3.80;;;;;;;;;;5074839;28;20594;-44
2022/10/28 02:24:59;;;;;;;5.83;3.77;;;;;;;;;;5074426;28;20682;-45
2022/10/28 02:27:31;;;;;;;6.47;3.80;;;;;;;;;;5074779;28;20294;-44
2022/10/28 02:30:00;;;;;;;7.80;3.60;;;;;;;;;;5074525;28;20195;-44
2022/10/28 02:32:27;;;;;;;6.87;3.90;;;;;;;;;;5074751;28;20214;-44
2022/10/28 02:34:54;;;;;;;5.27;3.37;;;;;;;;;;5074413;28;20733;-45
2022/10/28 02:37:22;;;;;;;10.10;3.77;;;;;;;;;;5074585;28;20211;-44
2022/10/28 02:39:52;;;;;;;6.70;3.80;;;;;;;;;;5074068;28;20207;-44
2022/10/28 02:42:19;;;;;;;9.37;3.83;;;;;;;;;;5074415;28;20206;-44
2022/10/28 02:44:48;;;;;;;5.57;3.30;;;;;;;;;;5073720;28;20200;-45
2022/10/28 02:47:18;;;;;;;7.37;3.90;;;;;;;;;;5073875;28;20195;-45
2022/10/28 02:49:47;;;;;;;7.73;3.70;;;;;;;;;;5074283;28;20204;-45
2022/10/28 02:52:15;;;;;;;5.70;3.57;;;;;;;;;;5074091;28;20725;-45
2022/10/28 02:54:43;;;;;;;5.30;3.73;;;;;;;;;;5074039;28;20251;-45
2022/10/28 02:57:12;;;;;;;5.67;3.53;;;;;;;;;;5074377;28;20298;-45
2022/10/28 02:59:38;;;;;;;6.47;3.83;;;;;;;;;;5074186;28;20213;-45
2022/10/28 03:02:04;;;;;;;5.07;3.67;;;;;;;;;;5073804;28;20226;-45
2022/10/28 03:04:30;;;;;;;4.43;3.10;;;;;;;;;;5074220;28;20609;-45
2022/10/28 03:06:56;;;;;;;4.63;4.00;;;;;;;;;;5073728;28;20677;-46
2022/10/28 03:09:22;;;;;;;7.20;3.83;;;;;;;;;;5073960;28;20578;-45
2022/10/28 03:11:48;;;;;;;5.33;3.50;;;;;;;;;;5073191;28;20560;-45
2022/10/28 03:14:16;;;;;;;5.53;3.37;;;;;;;;;;5073784;28;20200;-45
2022/10/28 03:16:42;;;;;;;4.37;3.23;;;;;;;;;;5073797;28;20200;-45
2022/10/28 03:19:08;;;;;;;4.43;3.70;;;;;;;;;;5073818;28;20196;-45
2022/10/28 03:21:34;;;;;;;6.73;4.20;;;;;;;;;;5073448;28;20246;-45
2022/10/28 03:24:00;;;;;;;6.03;3.73;;;;;;;;;;5072715;28;20698;-45
2022/10/28 03:26:26;;;;;;;8.43;4.13;;;;;;;;;;5072446;28;20665;-45
2022/10/28 03:28:52;;;;;;;7.40;3.87;;;;;;;;;;5073434;28;20234;-44
2022/10/28 03:31:19;;;;;;;5.63;4.37;;;;;;;;;;5073568;28;20198;-44
2022/10/28 03:33:45;;;;;;;6.90;3.93;;;;;;;;;;5073490;28;20231;-44
2022/10/28 03:36:11;;;;;;;9.13;4.23;;;;;;;;;;5073511;28;20272;-44
2022/10/28 03:38:37;;;;;;;7.13;3.73;;;;;;;;;;5073292;28;20203;-44
2022/10/28 03:41:03;;;;;;;8.43;4.60;;;;;;;;;;5072975;28;20592;-44
2022/10/28 03:43:29;;;;;;;6.13;4.30;;;;;;;;;;5073239;28;20202;-44
2022/10/28 03:45:56;;;;;;;6.10;4.40;;;;;;;;;;5073778;28;20195;-44
2022/10/28 03:48:23;;;;;;;7.47;4.27;;;;;;;;;;5073162;28;20188;-44
2022/10/28 03:50:51;;;;;;;7.00;4.53;;;;;;;;;;5072894;28;20285;-44
2022/10/28 03:53:17;;;;;;;7.63;4.43;;;;;;;;;;5072951;28;20688;-44
2022/10/28 03:55:43;;;;;;;5.80;4.33;;;;;;;;;;5072812;28;20227;-44
2022/10/28 03:58:09;;;;;;;10.40;4.67;;;;;;;;;;5072918;28;20298;-44
2022/10/28 04:00:35;;;;;;;9.07;4.67;;;;;;;;;;5071711;28;20287;-44
2022/10/28 04:03:01;;;;;;;8.37;4.90;;;;;;;;;;5072504;28;20622;-44
2022/10/28 04:05:29;;;;;;;9.43;4.10;;;;;;;;;;5072212;28;20287;-44
2022/10/28 04:07:55;;;;;;;7.20;4.27;;;;;;;;;;5072522;28;20319;-44
2022/10/28 04:10:21;;;;;;;8.87;4.67;;;;;;;;;;5072254;28;20600;-44
2022/10/28 04:12:47;;;;;;;9.73;4.70;;;;;;;;;;5072344;28;20564;-44
2022/10/28 04:15:13;;;;;;;9.73;4.93;;;;;;;;;;5072431;28;20340;-44
2022/10/28 04:17:39;;;;;;;10.33;4.80;;;;;;;;;;5072766;28;20357;-43
2022/10/28 04:20:06;;;;;;;7.63;4.40;;;;;;;;;;5072447;28;20298;-44
2022/10/28 04:22:33;;;;;;;8.03;4.63;;;;;;;;;;5071503;28;20753;-44
2022/10/28 04:24:59;;;;;;;8.03;4.70;;;;;;;;;;5071821;28;20199;-44
2022/10/28 04:27:25;;;;;;;7.17;4.27;;;;;;;;;;5071390;28;20287;-44
2022/10/28 04:29:51;;;;;;;7.00;4.50;;;;;;;;;;5072098;28;20278;-44
2022/10/28 04:32:17;;;;;;;8.53;4.30;;;;;;;;;;5072477;28;20278;-44
2022/10/28 04:34:43;;;;;;;7.37;4.50;;;;;;;;;;5071966;28;20768;-44
2022/10/28 04:37:09;;;;;;;5.33;3.87;;;;;;;;;;5072167;28;20290;-44
2022/10/28 04:39:37;;;;;;;7.60;4.13;;;;;;;;;;5071912;28;20245;-44
2022/10/28 04:42:03;;;;;;;6.53;4.57;;;;;;;;;;5072023;28;20646;-44
2022/10/28 04:44:29;;;;;;;6.17;3.93;;;;;;;;;;5071983;28;20862;-44
2022/10/28 04:46:55;;;;;;;7.33;4.63;;;;;;;;;;5071896;28;20207;-44
2022/10/28 04:49:21;;;;;;;8.53;4.20;;;;;;;;;;5071784;28;20199;-44
2022/10/28 04:51:47;;;;;;;8.50;4.37;;;;;;;;;;5070470;28;20323;-44
2022/10/28 04:54:13;;;;;;;7.40;4.23;;;;;;;;;;5071553;28;20275;-44
2022/10/28 04:56:41;;;;;;;5.37;4.23;;;;;;;;;;5071743;28;20655;-44
2022/10/28 04:59:07;;;;;;;5.83;4.40;;;;;;;;;;5071875;28;20200;-45
2022/10/28 05:01:33;;;;;;;6.93;4.07;;;;;;;;;;5071837;28;20192;-44
2022/10/28 05:03:59;;;;;;;6.07;4.20;;;;;;;;;;5071733;28;20248;-45
2022/10/28 05:06:25;;;;;;;7.03;4.07;;;;;;;;;;5071488;28;20187;-44
2022/10/28 05:08:51;;;;;;;7.97;4.30;;;;;;;;;;5071436;28;20231;-44
2022/10/28 05:11:17;;;;;;;10.40;5.27;;;;;;;;;;5071951;28;20199;-44
2022/10/28 05:13:44;;;;;;;7.93;4.97;;;;;;;;;;5072821;28;20219;-44
2022/10/28 05:16:10;;;;;;;9.50;4.77;;;;;;;;;;5072015;28;20797;-44
2022/10/28 05:18:36;;;;;;;9.60;5.13;;;;;;;;;;5071654;28;20235;-44
2022/10/28 05:21:03;;;;;;;7.80;4.10;;;;;;;;;;5071597;28;20238;-44
2022/10/28 05:23:29;;;;;;;7.63;3.87;;;;;;;;;;5071543;28;20191;-44
2022/10/28 05:25:55;;;;;;;7.13;4.47;;;;;;;;;;5071276;28;20245;-44
2022/10/28 05:28:21;;;;;;;7.13;4.30;;;;;;;;;;5070310;28;20253;-45
2022/10/28 05:30:48;;;;;;;6.63;4.30;;;;;;;;;;5071334;28;20654;-44
2022/10/28 05:33:14;;;;;;;10.17;4.97;;;;;;;;;;5071201;28;20299;-44
2022/10/28 05:35:40;;;;;;;8.63;4.23;;;;;;;;;;5071112;28;20589;-44
2022/10/28 05:38:06;;;;;;;5.93;4.60;;;;;;;;;;5071504;28;20646;-44
2022/10/28 05:40:33;;;;;;;7.70;4.40;;;;;;;;;;5071254;28;20253;-44
2022/10/28 05:42:59;;;;;;;5.73;4.60;;;;;;;;;;5071031;28;20253;-44
2022/10/28 05:45:25;;;;;;;7.37;4.57;;;;;;;;;;5071612;28;20188;-44
2022/10/28 05:47:52;;;;;;;6.13;4.47;;;;;;;;;;5071263;28;20199;-44
2022/10/28 05:50:19;;;;;;;5.10;3.73;;;;;;;;;;5071405;28;20278;-44
2022/10/28 05:52:46;;;;;;;6.30;4.03;;;;;;;;;;5070365;28;20242;-44
2022/10/28 05:55:12;;;;;;;4.77;4.10;;;;;;;;;;5070745;28;20219;-44
2022/10/28 05:57:38;;;;;;;4.87;3.80;;;;;;;;;;5071147;28;20231;-44
2022/10/28 06:00:05;;;;;;;4.53;3.43;;;;;;;;;;5071026;28;20265;-45
2022/10/28 06:02:31;;;;;;;3.60;3.10;;;;;;;;;;5071141;28;20616;-44
2022/10/28 06:04:58;;;;;;;6.50;3.77;;;;;;;;;;5070785;28;20682;-44
2022/10/28 06:07:24;;;;;;;5.67;3.20;;;;;;;;;;5070814;28;20299;-44
2022/10/28 06:09:50;;;;;;;5.67;3.50;;;;;;;;;;5070343;28;20681;-44
2022/10/28 06:12:16;;;;;;;3.60;3.10;;;;;;;;;;5070108;28;20670;-44
2022/10/28 06:14:42;;;;;;;6.33;3.90;;;;;;;;;;5070767;28;20316;-44
2022/10/28 06:17:08;;;;;;;7.03;5.60;;;;;;;;;;5071283;28;20207;-44
2022/10/28 06:19:34;;;;;;;7.47;5.97;;;;;;;;;;5070451;28;20616;-45
2022/10/28 06:22:02;;;;;;;6.63;5.40;;;;;;;;;;5070426;28;20214;-44
2022/10/28 06:24:28;;;;;;;8.43;4.20;;;;;;;;;;5070562;28;20491;-44
2022/10/28 06:26:54;;;;;;;8.03;5.07;;;;;;;;;;5070611;28;20279;-44
2022/10/28 06:29:20;;;;;;;7.87;4.73;;;;;;;;;;5069504;28;20198;-45
2022/10/28 06:31:46;;;;;;;6.10;4.60;;;;;;;;;;5070398;28;20192;-44
2022/10/28 06:34:12;;;;;;;11.43;5.13;;;;;;;;;;5070910;28;20294;-45
2022/10/28 06:36:38;;;;;;;11.90;5.77;;;;;;;;;;5070598;28;20219;-45
2022/10/28 06:39:06;;;;;;;11.10;6.33;;;;;;;;;;5069600;28;20200;-45
2022/10/28 06:41:32;;;;;;;6.33;4.77;;;;;;;;;;5070699;28;20257;-45
2022/10/28 06:43:58;;;;;;;8.10;4.77;;;;;;;;;;5070554;28;20211;-44
2022/10/28 06:46:24;;;;;;;7.13;4.80;;;;;;;;;;5072963;28;20198;-44
2022/10/28 06:48:50;;;;;;;6.27;4.93;;;;;;;;;;5074024;28;20228;-45
2022/10/28 06:51:16;;;;;;;8.20;4.60;;;;;;;;;;5073188;28;20223;-45
2022/10/28 06:53:42;;;;;;;7.50;4.67;;;;;;;;;;5073616;28;20584;-45
2022/10/28 06:56:10;;;;;;;7.20;4.90;;;;;;;;;;5073751;28;20231;-45
2022/10/28 06:58:36;;;;;;;5.90;4.77;;;;;;;;;;5074197;28;20207;-44
2022/10/28 07:01:02;;;;;;;6.70;4.93;;;;;;;;;;5074075;28;20577;-44
2022/10/28 07:03:28;;;;;;;6.20;4.40;;;;;;;;;;5074052;28;20204;-44
2022/10/28 07:05:54;;;;;;;7.40;4.90;;;;;;;;;;5073628;28;20199;-44
2022/10/28 07:08:20;;;;;;;6.60;4.97;;;;;;;;;;5073497;28;20215;-45
2022/10/28 07:10:52;;;;;;;7.97;6.00;;;;;;;;;;5072989;28;20203;-45
2022/10/28 07:13:20;;;;;;;11.40;6.67;;;;;;;;;;5073644;28;20223;-45
2022/10/28 07:15:50;;;;;;;8.03;6.10;;;;;;;;;;5073530;28;20227;-45
2022/10/28 07:18:16;;;;;;;9.40;5.73;;;;;;;;;;5073083;28;20195;-45
2022/10/28 07:20:42;;;;;;;7.20;5.17;;;;;;;;;;5073721;28;20680;-48
2022/10/28 07:23:11;;;;;;;6.00;4.77;;;;;;;;;;5073583;28;20196;-45
2022/10/28 07:25:37;;;;;;;7.10;5.00;;;;;;;;;;5073531;28;20192;-44
2022/10/28 07:28:03;;;;;;;9.20;5.30;;;;;;;;;;5073690;28;20201;-45
2022/10/28 07:30:31;;;;;;;8.90;6.23;;;;;;;;;;5073913;28;20294;-44
2022/10/28 07:33:00;;;;;;;10.67;6.10;;;;;;;;;;5069899;28;20196;-45
2022/10/28 07:35:26;;;;;;;9.77;5.80;;;;;;;;;;5061337;28;20316;-45
2022/10/28 07:37:52;;;;;;;8.03;4.80;;;;;;;;;;5063372;28;20203;-44
2022/10/28 07:40:19;;;;;;;9.77;5.00;;;;;;;;;;5062729;28;20202;-44
2022/10/28 07:42:45;;;;;;;7.63;4.97;;;;;;;;;;5061393;28;20582;-45
2022/10/28 07:45:11;;;;;;;6.97;4.83;;;;;;;;;;5063183;28;20582;-45
2022/10/28 07:47:38;;;;;;;6.80;4.27;;;;;;;;;;5062540;28;20188;-45
2022/10/28 07:50:06;;;;;;;10.17;4.70;;;;;;;;;;5061299;28;20227;-45
2022/10/28 07:52:32;;;;;;;9.13;5.40;;;;;;;;;;5061720;28;20207;-44
2022/10/28 07:54:59;;;;;;;6.60;3.90;;;;;;;;;;5062218;28;20215;-46
2022/10/28 07:57:25;;;;;;;7.47;3.97;;;;;;;;;;5061944;28;20271;-45
2022/10/28 07:59:51;;;;;;;7.63;3.57;;;;;;;;;;5061270;28;20265;-45
2022/10/28 08:02:21;;;;;;;7.43;3.90;;;;;;;;;;5067105;28;20250;-44
2022/10/28 08:04:48;;;;;;;7.67;3.73;;;;;;;;;;5072212;28;20197;-45
2022/10/28 08:07:17;;;;;;;8.90;3.97;;;;;;;;;;5072674;28;20677;-45
2022/10/28 08:09:43;;;;;;;10.07;3.50;;;;;;;;;;5072504;28;20562;-45
2022/10/28 08:12:12;;;;;;;12.17;3.80;;;;;;;;;;5072424;28;20207;-46
2022/10/28 08:14:38;;;;;;;11.67;3.50;;;;;;;;;;5072524;28;20205;-44
2022/10/28 08:17:04;;;;;;;6.07;3.20;;;;;;;;;;5072222;28;20214;-45
2022/10/28 08:19:30;;;;;;;8.30;3.40;;;;;;;;;;5072283;28;20197;-45
2022/10/28 08:21:58;;;;;;;6.17;3.83;;;;;;;;;;5072930;28;20207;-47
2022/10/28 08:24:24;;;;;;;7.13;3.23;;;;;;;;;;5072015;28;20199;-45
2022/10/28 08:26:50;;;;;;;9.37;3.40;;;;;;;;;;5071751;28;20202;-45
2022/10/28 08:29:16;;;;;;;8.03;3.50;;;;;;;;;;5071845;28;20195;-45
2022/10/28 08:31:42;;;;;;;7.67;3.67;;;;;;;;;;5071334;28;20290;-45
2022/10/28 08:34:08;;;;;;;8.33;3.27;;;;;;;;;;5071635;28;20225;-46
2022/10/28 08:36:35;;;;;;;11.33;3.70;;;;;;;;;;5072250;28;20313;-46
2022/10/28 08:39:02;;;;;;;7.73;3.20;;;;;;;;;;5071576;28;20195;-47
2022/10/28 08:41:31;;;;;;;10.00;3.30;;;;;;;;;;5071880;28;20195;-47
2022/10/28 08:44:04;;;;;;;8.83;3.33;;;;;;;;;;5071714;28;20575;-47
2022/10/28 08:46:37;;;;;;;9.67;3.70;;;;;;;;;;5072152;28;20195;-47
2022/10/28 08:49:03;;;;;;;9.27;3.80;;;;;;;;;;5066375;28;20207;-47
2022/10/28 08:51:34;;;;;;;10.67;3.20;;;;;;;;;;5071791;28;20263;-48
2022/10/28 08:54:02;;;;;;;8.47;3.20;;;;;;;;;;5071725;28;20247;-47
2022/10/28 08:56:31;;;;;;;8.40;3.80;;;;;;;;;;5071584;28;20449;-47
2022/10/28 08:58:59;;;;;;;12.37;6.63;;;;;;;;;;5070297;28;20595;-48
2022/10/28 09:01:30;;;;;;;18.67;9.27;;;;;;;;;;5067171;28;20667;-46
2022/10/28 09:03:58;;;;;;;12.93;7.63;;;;;;;;;;5071531;28;20206;-46
2022/10/28 09:06:24;;;;;;;8.93;5.57;;;;;;;;;;5071385;28;20190;-46
2022/10/28 09:08:51;;;;;;;9.13;4.03;;;;;;;;;;5070299;28;20215;-46
2022/10/28 09:11:25;;;;;;;5.77;3.47;;;;;;;;;;5071519;28;20656;-46
2022/10/28 09:14:00;;;;;;;7.13;3.37;;;;;;;;;;5071135;28;20660;-47
2022/10/28 09:16:34;;;;;;;8.77;3.30;;;;;;;;;;5071567;28;20230;-46
2022/10/28 09:19:03;;;;;;;6.20;3.17;;;;;;;;;;5071133;28;20674;-47
2022/10/28 09:21:32;;;;;;;11.23;3.13;;;;;;;;;;5071575;28;20205;-46
2022/10/28 09:24:00;;;;;;;17.47;5.93;;;;;;;;;;5070972;28;20357;-46
2022/10/28 09:26:37;;;;;;;7.20;3.33;;;;;;;;;;5071419;28;20604;-47
2022/10/28 09:29:11;;;;;;;8.23;3.63;;;;;;;;;;5070869;28;20252;-46
2022/10/28 09:31:39;;;;;;;8.90;2.73;;;;;;;;;;5071180;28;20700;-46
2022/10/28 09:34:09;;;;;;;11.00;2.90;;;;;;;;;;5071366;28;20218;-46
2022/10/28 09:36:39;;;;;;;13.07;3.07;;;;;;;;;;5071237;28;20233;-46
2022/10/28 09:39:05;;;;;;;9.13;2.77;;;;;;;;;;5070502;28;20245;-45
2022/10/28 09:41:33;;;;;;;8.73;3.00;;;;;;;;;;5071276;28;20615;-46
2022/10/28 09:44:03;;;;;;;7.70;3.23;;;;;;;;;;5071465;28;20199;-46
2022/10/28 09:46:31;;;;;;;7.37;2.90;;;;;;;;;;5071453;28;20305;-46
2022/10/28 09:48:59;;;;;;;7.97;2.80;;;;;;;;;;5071137;28;20256;-46
2022/10/28 09:51:28;;;;;;;10.10;3.43;;;;;;;;;;5071130;28;20241;-46
2022/10/28 09:53:56;;;;;;;10.47;3.00;;;;;;;;;;5070699;28;20298;-46
2022/10/28 09:56:22;;;;;;;9.47;3.37;;;;;;;;;;5071211;28;20232;-46
2022/10/28 09:58:48;;;;;;;12.43;3.10;;;;;;;;;;5071136;28;20196;-46
2022/10/28 10:01:16;;;;;;;12.43;3.17;;;;;;;;;;5070653;28;20204;-46
2022/10/28 10:03:44;;;;;;;11.33;3.33;;;;;;;;;;5070919;28;20258;-46
2022/10/28 10:06:12;;;;;;;8.67;3.10;;;;;;;;;;5070867;28;20254;-46
2022/10/28 10:08:38;;;;;;;8.67;3.67;;;;;;;;;;5070657;28;20266;-46
2022/10/28 10:11:05;;;;;;;5.40;3.00;;;;;;;;;;5070809;28;20325;-49
2022/10/28 10:13:33;;;;;;;8.47;3.30;;;;;;;;;;5070833;28;20199;-46
2022/10/28 10:16:01;;;;;;;11.97;3.13;;;;;;;;;;5070807;28;20216;-46
2022/10/28 10:18:29;;;;;;;8.97;3.20;;;;;;;;;;5070758;28;20200;-45
2022/10/28 10:21:00;;;;;;;11.77;3.20;;;;;;;;;;5071014;28;20203;-45
2022/10/28 10:23:30;;;;;;;8.63;3.30;;;;;;;;;;5075134;28;20272;-45
2022/10/28 10:25:59;;;;;;;9.10;3.10;;;;;;;;;;5074646;28;20191;-46
2022/10/28 10:28:26;;;;;;;11.77;3.47;;;;;;;;;;5074872;28;20205;-46
2022/10/28 10:30:54;;;;;;;7.60;3.30;;;;;;;;;;5074567;28;20269;-46
2022/10/28 10:33:21;;;;;;;10.73;3.10;;;;;;;;;;5074126;28;20192;-46
2022/10/28 10:35:53;;;;;;;7.67;3.20;;;;;;;;;;5073635;28;20215;-45
2022/10/28 10:38:21;;;;;;;9.53;2.90;;;;;;;;;;5073878;28;20191;-46
2022/10/28 10:40:48;;;;;;;10.60;3.17;;;;;;;;;;5074147;28;20294;-46
2022/10/28 10:43:20;;;;;;;8.17;3.10;;;;;;;;;;5074685;28;20199;-45
2022/10/28 10:45:51;;;;;;;12.67;3.53;;;;;;;;;;5074865;28;20200;-46
2022/10/28 10:48:17;;;;;;;12.30;3.43;;;;;;;;;;5075047;28;20208;-47
2022/10/28 10:50:44;;;;;;;6.10;2.90;;;;;;;;;;5071373;28;20235;-47
2022/10/28 10:53:19;;;;;;;9.47;3.53;;;;;;;;;;5073978;28;20568;-47
2022/10/28 10:55:50;;;;;;;18.90;3.60;;;;;;;;;;5074222;28;20681;-46
2022/10/28 10:58:17;;;;;;;10.23;3.30;;;;;;;;;;5074492;28;20654;-46
2022/10/28 11:00:45;;;;;;;12.30;3.30;;;;;;;;;;5074490;28;20282;-47
2022/10/28 11:03:16;;;;;;;11.73;3.37;;;;;;;;;;5074443;28;20229;-47
2022/10/28 11:05:47;;;;;;;10.33;3.30;;;;;;;;;;5074258;28;20215;-46
2022/10/28 11:08:22;;;;;;;11.10;3.13;;;;;;;;;;5072515;28;20371;-47
2022/10/28 11:11:02;;;;;;;11.63;3.37;;;;;;;;;;5073697;28;20201;-46
2022/10/28 11:13:29;;;;;;;8.93;3.37;;;;;;;;;;5074129;28;20570;-46
2022/10/28 11:15:59;;;;;;;12.77;3.60;;;;;;;;;;5073809;28;20236;-46
2022/10/28 11:18:25;;;;;;;12.07;2.80;;;;;;;;;;5073693;28;20206;-46
2022/10/28 11:20:55;;;;;;;8.00;3.00;;;;;;;;;;5073945;28;20188;-46
2022/10/28 11:23:27;;;;;;;12.60;3.23;;;;;;;;;;5073322;28;20755;-48
2022/10/28 11:25:59;;;;;;;11.53;3.30;;;;;;;;;;5072987;28;20191;-46
2022/10/28 11:28:34;;;;;;;10.37;3.47;;;;;;;;;;5073585;28;20595;-46
2022/10/28 11:31:06;;;;;;;7.60;3.03;;;;;;;;;;5072541;28;20201;-46
2022/10/28 11:33:36;;;;;;;9.63;3.77;;;;;;;;;;5073489;28;20245;-46
2022/10/28 11:36:07;;;;;;;11.37;3.33;;;;;;;;;;5072948;28;20265;-45
2022/10/28 11:38:43;;;;;;;8.87;3.37;;;;;;;;;;5073178;28;20683;-46
2022/10/28 11:41:17;;;;;;;10.57;3.90;;;;;;;;;;5073402;28;20223;-46
2022/10/28 11:43:47;;;;;;;12.47;3.40;;;;;;;;;;5073187;28;20202;-46
2022/10/28 11:46:23;;;;;;;11.23;3.37;;;;;;;;;;5073240;28;20193;-46
2022/10/28 11:48:57;;;;;;;11.57;3.80;;;;;;;;;;5073406;28;20210;-46
2022/10/28 11:51:30;;;;;;;11.27;3.50;;;;;;;;;;5073434;28;20246;-47
2022/10/28 11:54:14;;;;;;;9.93;3.27;;;;;;;;;;5073048;28;20201;-47
2022/10/28 11:56:45;;;;;;;17.67;3.63;;;;;;;;;;5062850;28;20759;-47
2022/10/28 11:59:21;;;;;;;12.87;3.53;;;;;;;;;;5073161;28;20284;-46
2022/10/28 12:01:51;;;;;;;11.97;3.20;;;;;;;;;;5072634;28;20675;-47
2022/10/28 12:04:24;;;;;;;10.50;3.77;;;;;;;;;;5072531;28;20197;-47
2022/10/28 12:06:57;;;;;;;13.63;3.87;;;;;;;;;;5072955;28;20198;-47
2022/10/28 12:09:27;;;;;;;11.53;3.40;;;;;;;;;;5071301;28;20278;-47
2022/10/28 12:12:01;;;;;;;12.57;3.23;;;;;;;;;;5071200;28;20201;-47
2022/10/28 12:14:32;;;;;;;9.90;3.43;;;;;;;;;;5072908;28;20245;-47
2022/10/28 12:17:00;;;;;;;11.53;3.77;;;;;;;;;;5072618;28;20269;-46
2022/10/28 12:19:27;;;;;;;10.30;3.20;;;;;;;;;;5072636;28;20664;-50
2022/10/28 12:21:57;;;;;;;11.03;2.97;;;;;;;;;;5072562;28;20203;-47
2022/10/28 12:24:24;;;;;;;6.70;3.33;;;;;;;;;;5072660;28;20324;-47
2022/10/28 12:26:51;;;;;;;9.50;3.40;;;;;;;;;;5072625;28;20201;-46
2022/10/28 12:29:21;;;;;;;13.87;3.50;;;;;;;;;;5072618;28;20203;-46
2022/10/28 12:31:48;;;;;;;9.03;3.00;;;;;;;;;;5072487;28;20600;-47
2022/10/28 12:34:16;;;;;;;10.07;3.20;;;;;;;;;;5072261;28;20203;-47
2022/10/28 12:36:46;;;;;;;9.63;3.40;;;;;;;;;;5071823;28;20314;-46
2022/10/28 12:39:14;;;;;;;10.40;3.50;;;;;;;;;;5071357;28;20203;-47
2022/10/28 12:41:46;;;;;;;11.90;4.13;;;;;;;;;;5071946;28;20195;-46
2022/10/28 12:44:14;;;;;;;14.07;3.87;;;;;;;;;;5071192;28;20285;-45
2022/10/28 12:46:47;;;;;;;12.57;3.57;;;;;;;;;;5072135;28;20226;-47
2022/10/28 12:49:15;;;;;;;13.47;3.63;;;;;;;;;;5071555;28;20207;-47
2022/10/28 12:51:41;;;;;;;15.27;3.80;;;;;;;;;;5071423;28;20708;-47
2022/10/28 12:54:13;;;;;;;8.80;3.10;;;;;;;;;;5071625;28;20704;-47
2022/10/28 12:56:41;;;;;;;8.30;3.40;;;;;;;;;;5072194;28;20269;-47
2022/10/28 12:59:11;;;;;;;12.60;3.63;;;;;;;;;;5069432;28;20202;-47
2022/10/28 13:01:37;;;;;;;10.00;3.57;;;;;;;;;;5072200;28;20577;-46
2022/10/28 13:04:05;;;;;;;9.40;3.03;;;;;;;;;;5071984;28;20553;-47
2022/10/28 13:06:37;;;;;;;8.20;3.50;;;;;;;;;;5072232;28;20675;-46
2022/10/28 13:09:33;;;;;;;15.20;3.80;;;;;;;;;;5072026;28;20248;-46
2022/10/28 13:12:27;;;;;;;9.37;3.40;;;;;;;;;;5010076;28;20210;-47
2022/10/28 13:15:08;;;;;;;9.33;3.57;;;;;;;;;;5069207;28;20675;-46
2022/10/28 13:17:40;;;;;;;8.07;3.10;;;;;;;;;;5072182;28;20212;-47
2022/10/28 13:20:18;;;;;;;14.00;3.47;;;;;;;;;;5071979;28;20559;-46
2022/10/28 13:23:00;;;;;;;8.13;3.43;;;;;;;;;;5072059;28;20592;-46
2022/10/28 13:25:35;;;;;;;9.33;3.13;;;;;;;;;;5071869;28;20449;-46
2022/10/28 13:28:01;;;;;;;8.67;3.20;;;;;;;;;;5071899;28;20199;-46
2022/10/28 13:30:30;;;;;;;11.93;3.33;;;;;;;;;;5071829;28;20284;-46
2022/10/28 13:33:00;;;;;;;9.43;3.30;;;;;;;;;;5071776;28;20195;-47
2022/10/28 13:35:28;;;;;;;9.17;3.37;;;;;;;;;;5070439;28;20287;-46
2022/10/28 13:37:55;;;;;;;10.33;3.30;;;;;;;;;;5071643;28;20208;-46
2022/10/28 13:40:23;;;;;;;6.47;3.13;;;;;;;;;;5071754;28;20292;-46
2022/10/28 13:42:49;;;;;;;12.77;3.70;;;;;;;;;;5071586;28;20230;-46
2022/10/28 13:45:33;;;;;;;13.23;3.83;;;;;;;;;;5071499;28;20676;-46
2022/10/28 13:48:14;;;;;;;11.10;3.63;;;;;;;;;;5071713;28;20668;-46
2022/10/28 13:50:42;;;;;;;11.13;4.03;;;;;;;;;;5071302;28;20236;-46
2022/10/28 13:53:41;;;;;;;8.53;3.40;;;;;;;;;;5071551;28;20257;-46
2022/10/28 13:56:19;;;;;;;11.37;3.30;;;;;;;;;;5075152;28;20238;-46
2022/10/28 13:58:52;;;;;;;10.63;3.80;;;;;;;;;;5076076;28;20194;-46
2022/10/28 14:01:52;;;;;;;7.67;3.00;;;;;;;;;;5075677;28;20203;-46
2022/10/28 14:04:21;;;;;;;13.00;3.57;;;;;;;;;;5013675;28;20828;-46
2022/10/28 14:06:48;;;;;;;12.33;4.17;;;;;;;;;;5013635;28;20189;-47
2022/10/28 14:09:19;;;;;;;15.73;5.07;;;;;;;;;;5042216;28;20231;-46
2022/10/28 14:11:46;;;;;;;11.70;4.13;;;;;;;;;;5075659;28;20715;-46
2022/10/28 14:14:14;;;;;;;14.87;4.27;;;;;;;;;;5075538;28;20222;-45
2022/10/28 14:16:43;;;;;;;10.43;3.90;;;;;;;;;;5075323;28;20235;-45
2022/10/28 14:19:15;;;;;;;11.57;4.23;;;;;;;;;;5075244;28;20239;-45
2022/10/28 14:21:43;;;;;;;12.53;3.83;;;;;;;;;;5074959;28;20196;-46
2022/10/28 14:24:13;;;;;;;13.03;4.10;;;;;;;;;;5074724;28;20191;-46
2022/10/28 14:26:57;;;;;;;7.40;3.87;;;;;;;;;;5074996;28;20203;-46
2022/10/28 14:29:27;;;;;;;11.83;3.30;;;;;;;;;;5043028;28;20336;-47
2022/10/28 14:31:53;;;;;;;12.77;3.80;;;;;;;;;;5074525;28;20199;-47
2022/10/28 14:34:28;;;;;;;14.27;4.43;;;;;;;;;;5074319;28;20719;-47
2022/10/28 14:36:58;;;;;;;14.33;5.00;;;;;;;;;;5074597;28;20233;-47
2022/10/28 14:39:33;;;;;;;11.20;3.87;;;;;;;;;;5074409;28;20282;-46
2022/10/28 14:42:17;;;;;;;8.93;4.00;;;;;;;;;;5074775;28;20195;-46
2022/10/28 14:44:55;;;;;;;12.40;4.33;;;;;;;;;;5063898;28;20569;-46
2022/10/28 14:47:36;;;;;;;14.33;3.73;;;;;;;;;;5073999;28;20195;-47